sensor_id;sensor_type;location;lat;lon;timestamp;P1;durP1;ratioP1;P2;durP2;ratioP2
8538;SDS011;4307;53.868;11.680;2024-03-22T00:02:13;18.63;;;10.47;;
8538;SDS011;4307;53.868;11.680;2024-03-22T00:04:40;20.97;;;10.70;;
8538;SDS011;4307;53.868;11.680;2024-03-22T00:07:05;19.77;;;11.43;;
8538;SDS011;4307;53.868;11.680;2024-03-22T00:09:32;20.87;;;11.23;;
8538;SDS011;4307;53.868;11.680;2024-03-22T00:11:58;19.70;;;11.03;;
8538;SDS011;4307;53.868;11.680;2024-03-22T00:14:25;21.97;;;9.93;;
8538;SDS011;4307;53.868;11.680;2024-03-22T00:16:52;24.63;;;9.90;;
8538;SDS011;4307;53.868;11.680;2024-03-22T00:19:19;22.10;;;9.67;;
8538;SDS011;4307;53.868;11.680;2024-03-22T00:21:44;20.07;;;9.83;;
8538;SDS011;4307;53.868;11.680;2024-03-22T00:24:11;17.03;;;9.00;;
8538;SDS011;4307;53.868;11.680;2024-03-22T00:26:36;19.13;;;9.60;;
8538;SDS011;4307;53.868;11.680;2024-03-22T00:29:04;17.73;;;8.87;;
8538;SDS011;4307;53.868;11.680;2024-03-22T00:31:29;17.47;;;9.97;;
8538;SDS011;4307;53.868;11.680;2024-03-22T00:33:57;21.93;;;9.70;;
8538;SDS011;4307;53.868;11.680;2024-03-22T00:36:23;18.20;;;9.03;;
8538;SDS011;4307;53.868;11.680;2024-03-22T00:38:50;19.90;;;8.73;;
8538;SDS011;4307;53.868;11.680;2024-03-22T00:41:15;16.10;;;9.30;;
8538;SDS011;4307;53.868;11.680;2024-03-22T00:43:42;21.13;;;8.17;;
8538;SDS011;4307;53.868;11.680;2024-03-22T00:46:08;16.97;;;8.33;;
8538;SDS011;4307;53.868;11.680;2024-03-22T00:48:34;16.13;;;8.50;;
8538;SDS011;4307;53.868;11.680;2024-03-22T00:51:02;17.50;;;8.40;;
8538;SDS011;4307;53.868;11.680;2024-03-22T00:53:29;17.50;;;8.67;;
8538;SDS011;4307;53.868;11.680;2024-03-22T00:55:55;13.83;;;8.03;;
8538;SDS011;4307;53.868;11.680;2024-03-22T00:58:24;20.77;;;8.20;;
8538;SDS011;4307;53.868;11.680;2024-03-22T01:00:51;19.13;;;7.87;;
8538;SDS011;4307;53.868;11.680;2024-03-22T01:03:17;19.40;;;8.50;;
8538;SDS011;4307;53.868;11.680;2024-03-22T01:05:43;20.23;;;8.23;;
8538;SDS011;4307;53.868;11.680;2024-03-22T01:08:11;14.00;;;7.20;;
8538;SDS011;4307;53.868;11.680;2024-03-22T01:10:37;12.20;;;7.07;;
8538;SDS011;4307;53.868;11.680;2024-03-22T01:13:03;18.37;;;7.80;;
8538;SDS011;4307;53.868;11.680;2024-03-22T01:15:29;13.43;;;7.53;;
8538;SDS011;4307;53.868;11.680;2024-03-22T01:17:56;13.97;;;7.93;;
8538;SDS011;4307;53.868;11.680;2024-03-22T01:20:21;13.90;;;7.87;;
8538;SDS011;4307;53.868;11.680;2024-03-22T01:22:48;13.17;;;7.77;;
8538;SDS011;4307;53.868;11.680;2024-03-22T01:25:15;19.33;;;7.67;;
8538;SDS011;4307;53.868;11.680;2024-03-22T01:27:42;17.37;;;8.17;;
8538;SDS011;4307;53.868;11.680;2024-03-22T01:30:08;15.87;;;7.87;;
8538;SDS011;4307;53.868;11.680;2024-03-22T01:32:36;16.23;;;8.17;;
8538;SDS011;4307;53.868;11.680;2024-03-22T01:35:02;16.83;;;7.77;;
8538;SDS011;4307;53.868;11.680;2024-03-22T01:37:28;15.30;;;7.83;;
8538;SDS011;4307;53.868;11.680;2024-03-22T01:39:54;12.40;;;7.80;;
8538;SDS011;4307;53.868;11.680;2024-03-22T01:42:22;14.03;;;7.47;;
8538;SDS011;4307;53.868;11.680;2024-03-22T01:44:48;19.27;;;8.00;;
8538;SDS011;4307;53.868;11.680;2024-03-22T01:47:15;19.20;;;8.83;;
8538;SDS011;4307;53.868;11.680;2024-03-22T01:49:41;18.53;;;7.43;;
8538;SDS011;4307;53.868;11.680;2024-03-22T01:52:08;12.93;;;7.80;;
8538;SDS011;4307;53.868;11.680;2024-03-22T01:54:34;15.23;;;7.43;;
8538;SDS011;4307;53.868;11.680;2024-03-22T01:57:01;15.53;;;8.40;;
8538;SDS011;4307;53.868;11.680;2024-03-22T01:59:28;15.13;;;7.37;;
8538;SDS011;4307;53.868;11.680;2024-03-22T02:01:57;13.37;;;7.90;;
8538;SDS011;4307;53.868;11.680;2024-03-22T02:04:23;22.53;;;8.60;;
8538;SDS011;4307;53.868;11.680;2024-03-22T02:06:49;18.43;;;8.50;;
8538;SDS011;4307;53.868;11.680;2024-03-22T02:09:15;14.33;;;8.80;;
8538;SDS011;4307;53.868;11.680;2024-03-22T02:11:42;15.10;;;8.27;;
8538;SDS011;4307;53.868;11.680;2024-03-22T02:14:08;15.53;;;8.30;;
8538;SDS011;4307;53.868;11.680;2024-03-22T02:16:36;13.53;;;7.77;;
8538;SDS011;4307;53.868;11.680;2024-03-22T02:19:01;14.73;;;7.93;;
8538;SDS011;4307;53.868;11.680;2024-03-22T02:21:28;16.53;;;8.43;;
8538;SDS011;4307;53.868;11.680;2024-03-22T02:23:55;14.90;;;7.90;;
8538;SDS011;4307;53.868;11.680;2024-03-22T02:26:21;18.83;;;8.33;;
8538;SDS011;4307;53.868;11.680;2024-03-22T02:28:47;19.87;;;9.00;;
8538;SDS011;4307;53.868;11.680;2024-03-22T02:31:14;18.07;;;9.70;;
8538;SDS011;4307;53.868;11.680;2024-03-22T02:33:40;18.10;;;9.30;;
8538;SDS011;4307;53.868;11.680;2024-03-22T02:36:06;15.00;;;8.90;;
8538;SDS011;4307;53.868;11.680;2024-03-22T02:38:32;18.37;;;9.07;;
8538;SDS011;4307;53.868;11.680;2024-03-22T02:41:00;16.80;;;8.93;;
8538;SDS011;4307;53.868;11.680;2024-03-22T02:43:26;18.80;;;8.73;;
8538;SDS011;4307;53.868;11.680;2024-03-22T02:45:52;16.87;;;9.93;;
8538;SDS011;4307;53.868;11.680;2024-03-22T02:48:18;14.27;;;9.40;;
8538;SDS011;4307;53.868;11.680;2024-03-22T02:50:45;16.27;;;9.23;;
8538;SDS011;4307;53.868;11.680;2024-03-22T02:53:10;16.73;;;9.23;;
8538;SDS011;4307;53.868;11.680;2024-03-22T02:55:37;18.23;;;9.63;;
8538;SDS011;4307;53.868;11.680;2024-03-22T02:58:04;17.83;;;9.23;;
8538;SDS011;4307;53.868;11.680;2024-03-22T03:00:31;15.10;;;9.37;;
8538;SDS011;4307;53.868;11.680;2024-03-22T03:03:00;22.00;;;11.20;;
8538;SDS011;4307;53.868;11.680;2024-03-22T03:05:27;22.23;;;9.93;;
8538;SDS011;4307;53.868;11.680;2024-03-22T03:07:53;17.23;;;9.17;;
8538;SDS011;4307;53.868;11.680;2024-03-22T03:10:20;23.27;;;9.57;;
8538;SDS011;4307;53.868;11.680;2024-03-22T03:12:45;15.93;;;8.90;;
8538;SDS011;4307;53.868;11.680;2024-03-22T03:15:14;23.77;;;9.80;;
8538;SDS011;4307;53.868;11.680;2024-03-22T03:17:41;17.00;;;9.57;;
8538;SDS011;4307;53.868;11.680;2024-03-22T03:20:08;16.07;;;10.30;;
8538;SDS011;4307;53.868;11.680;2024-03-22T03:22:38;15.10;;;10.00;;
8538;SDS011;4307;53.868;11.680;2024-03-22T03:25:05;13.37;;;8.83;;
8538;SDS011;4307;53.868;11.680;2024-03-22T03:27:31;16.67;;;10.03;;
8538;SDS011;4307;53.868;11.680;2024-03-22T03:29:58;20.20;;;9.73;;
8538;SDS011;4307;53.868;11.680;2024-03-22T03:32:25;21.97;;;10.13;;
8538;SDS011;4307;53.868;11.680;2024-03-22T03:34:52;16.77;;;9.60;;
8538;SDS011;4307;53.868;11.680;2024-03-22T03:37:17;17.83;;;9.83;;
8538;SDS011;4307;53.868;11.680;2024-03-22T03:39:44;19.87;;;10.37;;
8538;SDS011;4307;53.868;11.680;2024-03-22T03:42:10;16.33;;;9.93;;
8538;SDS011;4307;53.868;11.680;2024-03-22T03:44:37;22.77;;;9.93;;
8538;SDS011;4307;53.868;11.680;2024-03-22T03:47:02;21.70;;;10.43;;
8538;SDS011;4307;53.868;11.680;2024-03-22T03:49:31;15.17;;;10.30;;
8538;SDS011;4307;53.868;11.680;2024-03-22T03:51:56;17.90;;;10.73;;
8538;SDS011;4307;53.868;11.680;2024-03-22T03:54:23;25.03;;;10.90;;
8538;SDS011;4307;53.868;11.680;2024-03-22T03:56:49;19.13;;;10.27;;
8538;SDS011;4307;53.868;11.680;2024-03-22T03:59:15;16.73;;;10.57;;
8538;SDS011;4307;53.868;11.680;2024-03-22T04:01:41;19.60;;;10.87;;
8538;SDS011;4307;53.868;11.680;2024-03-22T04:04:08;16.43;;;10.93;;
8538;SDS011;4307;53.868;11.680;2024-03-22T04:06:35;18.57;;;11.43;;
8538;SDS011;4307;53.868;11.680;2024-03-22T04:09:01;19.40;;;11.07;;
8538;SDS011;4307;53.868;11.680;2024-03-22T04:11:28;23.57;;;11.80;;
8538;SDS011;4307;53.868;11.680;2024-03-22T04:13:54;21.00;;;11.33;;
8538;SDS011;4307;53.868;11.680;2024-03-22T04:16:20;20.63;;;11.53;;
8538;SDS011;4307;53.868;11.680;2024-03-22T04:18:47;23.60;;;12.07;;
8538;SDS011;4307;53.868;11.680;2024-03-22T04:21:12;19.30;;;11.43;;
8538;SDS011;4307;53.868;11.680;2024-03-22T04:23:40;23.60;;;12.07;;
8538;SDS011;4307;53.868;11.680;2024-03-22T04:26:06;20.97;;;12.63;;
8538;SDS011;4307;53.868;11.680;2024-03-22T04:28:33;21.63;;;12.20;;
8538;SDS011;4307;53.868;11.680;2024-03-22T04:30:59;20.10;;;11.90;;
8538;SDS011;4307;53.868;11.680;2024-03-22T04:33:27;20.60;;;11.90;;
8538;SDS011;4307;53.868;11.680;2024-03-22T04:35:53;22.97;;;12.60;;
8538;SDS011;4307;53.868;11.680;2024-03-22T04:38:21;22.77;;;12.30;;
8538;SDS011;4307;53.868;11.680;2024-03-22T04:40:49;21.07;;;11.47;;
8538;SDS011;4307;53.868;11.680;2024-03-22T04:43:16;22.87;;;12.87;;
8538;SDS011;4307;53.868;11.680;2024-03-22T04:45:42;23.20;;;13.17;;
8538;SDS011;4307;53.868;11.680;2024-03-22T04:48:09;20.53;;;11.97;;
8538;SDS011;4307;53.868;11.680;2024-03-22T04:50:34;25.63;;;13.43;;
8538;SDS011;4307;53.868;11.680;2024-03-22T04:53:01;22.33;;;12.30;;
8538;SDS011;4307;53.868;11.680;2024-03-22T04:55:27;24.20;;;12.60;;
8538;SDS011;4307;53.868;11.680;2024-03-22T04:57:55;24.00;;;13.23;;
8538;SDS011;4307;53.868;11.680;2024-03-22T05:00:21;20.20;;;12.27;;
8538;SDS011;4307;53.868;11.680;2024-03-22T05:02:50;22.67;;;13.73;;
8538;SDS011;4307;53.868;11.680;2024-03-22T05:05:15;20.37;;;13.10;;
8538;SDS011;4307;53.868;11.680;2024-03-22T05:07:42;25.90;;;13.83;;
8538;SDS011;4307;53.868;11.680;2024-03-22T05:10:08;23.67;;;13.43;;
8538;SDS011;4307;53.868;11.680;2024-03-22T05:12:35;29.07;;;15.03;;
8538;SDS011;4307;53.868;11.680;2024-03-22T05:15:03;24.50;;;12.83;;
8538;SDS011;4307;53.868;11.680;2024-03-22T05:17:31;22.10;;;13.13;;
8538;SDS011;4307;53.868;11.680;2024-03-22T05:19:57;25.07;;;13.53;;
8538;SDS011;4307;53.868;11.680;2024-03-22T05:22:23;25.13;;;14.30;;
8538;SDS011;4307;53.868;11.680;2024-03-22T05:24:49;25.47;;;14.73;;
8538;SDS011;4307;53.868;11.680;2024-03-22T05:27:16;28.67;;;14.60;;
8538;SDS011;4307;53.868;11.680;2024-03-22T05:29:42;22.93;;;13.23;;
8538;SDS011;4307;53.868;11.680;2024-03-22T05:32:10;29.90;;;15.43;;
8538;SDS011;4307;53.868;11.680;2024-03-22T05:34:36;26.53;;;15.13;;
8538;SDS011;4307;53.868;11.680;2024-03-22T05:37:02;26.13;;;14.90;;
8538;SDS011;4307;53.868;11.680;2024-03-22T05:39:28;27.57;;;14.83;;
8538;SDS011;4307;53.868;11.680;2024-03-22T05:41:55;25.63;;;14.27;;
8538;SDS011;4307;53.868;11.680;2024-03-22T05:44:21;29.07;;;15.37;;
8538;SDS011;4307;53.868;11.680;2024-03-22T05:46:47;27.93;;;15.50;;
8538;SDS011;4307;53.868;11.680;2024-03-22T05:49:16;29.20;;;14.77;;
8538;SDS011;4307;53.868;11.680;2024-03-22T05:51:41;27.80;;;15.93;;
8538;SDS011;4307;53.868;11.680;2024-03-22T05:54:08;29.23;;;15.53;;
8538;SDS011;4307;53.868;11.680;2024-03-22T05:56:34;30.37;;;15.67;;
8538;SDS011;4307;53.868;11.680;2024-03-22T05:59:01;26.70;;;15.10;;
8538;SDS011;4307;53.868;11.680;2024-03-22T06:01:27;29.07;;;15.73;;
8538;SDS011;4307;53.868;11.680;2024-03-22T06:03:53;27.20;;;15.83;;
8538;SDS011;4307;53.868;11.680;2024-03-22T06:06:20;29.40;;;16.33;;
8538;SDS011;4307;53.868;11.680;2024-03-22T06:08:50;30.97;;;16.83;;
8538;SDS011;4307;53.868;11.680;2024-03-22T06:11:17;30.77;;;17.90;;
8538;SDS011;4307;53.868;11.680;2024-03-22T06:13:44;31.13;;;17.77;;
8538;SDS011;4307;53.868;11.680;2024-03-22T06:16:10;29.77;;;16.73;;
8538;SDS011;4307;53.868;11.680;2024-03-22T06:18:36;29.03;;;16.27;;
8538;SDS011;4307;53.868;11.680;2024-03-22T06:21:02;29.53;;;16.43;;
8538;SDS011;4307;53.868;11.680;2024-03-22T06:23:31;30.13;;;16.97;;
8538;SDS011;4307;53.868;11.680;2024-03-22T06:25:57;35.10;;;17.73;;
8538;SDS011;4307;53.868;11.680;2024-03-22T06:28:23;27.33;;;15.90;;
8538;SDS011;4307;53.868;11.680;2024-03-22T06:30:52;36.60;;;17.20;;
8538;SDS011;4307;53.868;11.680;2024-03-22T06:33:19;31.03;;;16.80;;
8538;SDS011;4307;53.868;11.680;2024-03-22T06:35:45;32.53;;;17.23;;
8538;SDS011;4307;53.868;11.680;2024-03-22T06:38:12;32.53;;;17.20;;
8538;SDS011;4307;53.868;11.680;2024-03-22T06:40:39;33.57;;;18.37;;
8538;SDS011;4307;53.868;11.680;2024-03-22T06:43:06;35.67;;;18.43;;
8538;SDS011;4307;53.868;11.680;2024-03-22T06:45:31;31.63;;;18.47;;
8538;SDS011;4307;53.868;11.680;2024-03-22T06:47:58;34.23;;;18.63;;
8538;SDS011;4307;53.868;11.680;2024-03-22T06:50:24;33.93;;;19.47;;
8538;SDS011;4307;53.868;11.680;2024-03-22T06:52:51;31.37;;;17.80;;
8538;SDS011;4307;53.868;11.680;2024-03-22T06:55:18;33.30;;;17.53;;
8538;SDS011;4307;53.868;11.680;2024-03-22T06:57:46;33.90;;;17.40;;
8538;SDS011;4307;53.868;11.680;2024-03-22T07:00:12;34.33;;;18.57;;
8538;SDS011;4307;53.868;11.680;2024-03-22T07:02:39;31.90;;;18.27;;
8538;SDS011;4307;53.868;11.680;2024-03-22T07:05:05;40.23;;;19.80;;
8538;SDS011;4307;53.868;11.680;2024-03-22T07:07:33;35.87;;;20.50;;
8538;SDS011;4307;53.868;11.680;2024-03-22T07:09:59;36.37;;;19.13;;
8538;SDS011;4307;53.868;11.680;2024-03-22T07:12:25;38.70;;;19.00;;
8538;SDS011;4307;53.868;11.680;2024-03-22T07:14:53;39.30;;;19.77;;
8538;SDS011;4307;53.868;11.680;2024-03-22T07:17:19;36.07;;;18.77;;
8538;SDS011;4307;53.868;11.680;2024-03-22T07:19:49;31.60;;;18.37;;
8538;SDS011;4307;53.868;11.680;2024-03-22T07:22:16;34.57;;;19.70;;
8538;SDS011;4307;53.868;11.680;2024-03-22T07:24:41;38.93;;;21.67;;
8538;SDS011;4307;53.868;11.680;2024-03-22T07:27:08;36.90;;;19.47;;
8538;SDS011;4307;53.868;11.680;2024-03-22T07:29:34;35.87;;;19.90;;
8538;SDS011;4307;53.868;11.680;2024-03-22T07:32:02;37.67;;;19.83;;
8538;SDS011;4307;53.868;11.680;2024-03-22T07:34:29;35.53;;;19.87;;
8538;SDS011;4307;53.868;11.680;2024-03-22T07:36:54;36.13;;;20.03;;
8538;SDS011;4307;53.868;11.680;2024-03-22T07:39:21;38.17;;;21.00;;
8538;SDS011;4307;53.868;11.680;2024-03-22T07:41:47;36.67;;;21.03;;
8538;SDS011;4307;53.868;11.680;2024-03-22T07:44:13;38.33;;;20.93;;
8538;SDS011;4307;53.868;11.680;2024-03-22T07:46:39;39.40;;;21.80;;
8538;SDS011;4307;53.868;11.680;2024-03-22T07:49:07;40.77;;;22.57;;
8538;SDS011;4307;53.868;11.680;2024-03-22T07:51:33;38.40;;;21.63;;
8538;SDS011;4307;53.868;11.680;2024-03-22T07:53:59;37.97;;;21.37;;
8538;SDS011;4307;53.868;11.680;2024-03-22T07:56:27;39.00;;;21.77;;
8538;SDS011;4307;53.868;11.680;2024-03-22T07:58:53;38.60;;;20.63;;
8538;SDS011;4307;53.868;11.680;2024-03-22T08:01:20;36.77;;;22.47;;
8538;SDS011;4307;53.868;11.680;2024-03-22T08:03:47;39.63;;;21.80;;
8538;SDS011;4307;53.868;11.680;2024-03-22T08:06:14;40.23;;;22.60;;
8538;SDS011;4307;53.868;11.680;2024-03-22T08:08:41;43.00;;;22.93;;
8538;SDS011;4307;53.868;11.680;2024-03-22T08:11:07;41.10;;;23.33;;
8538;SDS011;4307;53.868;11.680;2024-03-22T08:13:34;42.83;;;23.50;;
8538;SDS011;4307;53.868;11.680;2024-03-22T08:16:00;45.33;;;24.20;;
8538;SDS011;4307;53.868;11.680;2024-03-22T08:18:26;42.60;;;23.97;;
8538;SDS011;4307;53.868;11.680;2024-03-22T08:20:52;43.87;;;23.43;;
8538;SDS011;4307;53.868;11.680;2024-03-22T08:23:20;40.60;;;23.30;;
8538;SDS011;4307;53.868;11.680;2024-03-22T08:25:47;47.33;;;25.23;;
8538;SDS011;4307;53.868;11.680;2024-03-22T08:28:14;45.80;;;23.80;;
8538;SDS011;4307;53.868;11.680;2024-03-22T08:30:40;39.77;;;22.23;;
8538;SDS011;4307;53.868;11.680;2024-03-22T08:33:08;46.40;;;23.83;;
8538;SDS011;4307;53.868;11.680;2024-03-22T08:35:34;42.90;;;23.30;;
8538;SDS011;4307;53.868;11.680;2024-03-22T08:38:00;43.70;;;22.90;;
8538;SDS011;4307;53.868;11.680;2024-03-22T08:40:27;43.70;;;24.87;;
8538;SDS011;4307;53.868;11.680;2024-03-22T08:42:54;45.13;;;24.90;;
8538;SDS011;4307;53.868;11.680;2024-03-22T08:45:19;44.23;;;24.53;;
8538;SDS011;4307;53.868;11.680;2024-03-22T08:47:46;48.40;;;25.63;;
8538;SDS011;4307;53.868;11.680;2024-03-22T08:50:12;43.67;;;25.27;;
8538;SDS011;4307;53.868;11.680;2024-03-22T08:52:39;43.53;;;24.70;;
8538;SDS011;4307;53.868;11.680;2024-03-22T08:55:05;44.37;;;24.23;;
8538;SDS011;4307;53.868;11.680;2024-03-22T08:57:33;44.83;;;25.10;;
8538;SDS011;4307;53.868;11.680;2024-03-22T08:59:59;48.97;;;25.63;;
8538;SDS011;4307;53.868;11.680;2024-03-22T09:02:26;47.87;;;25.67;;
8538;SDS011;4307;53.868;11.680;2024-03-22T09:04:51;49.57;;;26.33;;
8538;SDS011;4307;53.868;11.680;2024-03-22T09:07:19;46.20;;;24.70;;
8538;SDS011;4307;53.868;11.680;2024-03-22T09:09:44;49.37;;;26.07;;
8538;SDS011;4307;53.868;11.680;2024-03-22T09:12:11;50.37;;;26.67;;
8538;SDS011;4307;53.868;11.680;2024-03-22T09:14:38;49.20;;;26.30;;
8538;SDS011;4307;53.868;11.680;2024-03-22T09:17:05;50.97;;;27.17;;
8538;SDS011;4307;53.868;11.680;2024-03-22T09:19:30;47.23;;;25.97;;
8538;SDS011;4307;53.868;11.680;2024-03-22T09:21:57;46.93;;;25.60;;
8538;SDS011;4307;53.868;11.680;2024-03-22T09:24:23;46.13;;;26.37;;
8538;SDS011;4307;53.868;11.680;2024-03-22T09:26:50;53.57;;;27.67;;
8538;SDS011;4307;53.868;11.680;2024-03-22T09:29:15;51.83;;;26.93;;
8538;SDS011;4307;53.868;11.680;2024-03-22T09:31:44;51.30;;;27.00;;
8538;SDS011;4307;53.868;11.680;2024-03-22T09:34:11;48.37;;;26.37;;
8538;SDS011;4307;53.868;11.680;2024-03-22T09:36:41;53.40;;;28.43;;
8538;SDS011;4307;53.868;11.680;2024-03-22T09:39:08;50.67;;;26.83;;
8538;SDS011;4307;53.868;11.680;2024-03-22T09:41:37;53.00;;;27.67;;
8538;SDS011;4307;53.868;11.680;2024-03-22T09:44:07;51.27;;;28.13;;
8538;SDS011;4307;53.868;11.680;2024-03-22T09:46:40;49.20;;;26.33;;
8538;SDS011;4307;53.868;11.680;2024-03-22T09:49:09;52.77;;;27.77;;
8538;SDS011;4307;53.868;11.680;2024-03-22T09:51:37;48.90;;;27.97;;
8538;SDS011;4307;53.868;11.680;2024-03-22T09:54:03;60.97;;;27.70;;
8538;SDS011;4307;53.868;11.680;2024-03-22T09:56:30;52.53;;;27.37;;
8538;SDS011;4307;53.868;11.680;2024-03-22T09:58:56;48.10;;;26.53;;
8538;SDS011;4307;53.868;11.680;2024-03-22T10:01:24;52.13;;;27.37;;
8538;SDS011;4307;53.868;11.680;2024-03-22T10:03:51;46.27;;;24.00;;
8538;SDS011;4307;53.868;11.680;2024-03-22T10:06:20;51.13;;;27.03;;
8538;SDS011;4307;53.868;11.680;2024-03-22T10:08:45;46.37;;;24.50;;
8538;SDS011;4307;53.868;11.680;2024-03-22T10:11:12;46.33;;;25.67;;
8538;SDS011;4307;53.868;11.680;2024-03-22T10:13:38;44.47;;;25.20;;
8538;SDS011;4307;53.868;11.680;2024-03-22T10:16:05;48.73;;;26.67;;
8538;SDS011;4307;53.868;11.680;2024-03-22T10:18:32;40.57;;;24.53;;
8538;SDS011;4307;53.868;11.680;2024-03-22T10:21:02;47.57;;;25.53;;
8538;SDS011;4307;53.868;11.680;2024-03-22T10:23:28;50.87;;;27.37;;
8538;SDS011;4307;53.868;11.680;2024-03-22T10:25:56;46.23;;;25.07;;
8538;SDS011;4307;53.868;11.680;2024-03-22T10:28:23;46.17;;;25.43;;
8538;SDS011;4307;53.868;11.680;2024-03-22T10:30:50;47.20;;;27.70;;
8538;SDS011;4307;53.868;11.680;2024-03-22T10:33:17;50.20;;;26.37;;
8538;SDS011;4307;53.868;11.680;2024-03-22T10:35:45;50.93;;;26.50;;
8538;SDS011;4307;53.868;11.680;2024-03-22T10:38:13;52.23;;;28.07;;
8538;SDS011;4307;53.868;11.680;2024-03-22T10:40:40;49.60;;;26.73;;
8538;SDS011;4307;53.868;11.680;2024-03-22T10:43:10;51.40;;;25.90;;
8538;SDS011;4307;53.868;11.680;2024-03-22T10:45:37;52.47;;;26.47;;
8538;SDS011;4307;53.868;11.680;2024-03-22T10:48:05;56.33;;;27.73;;
8538;SDS011;4307;53.868;11.680;2024-03-22T10:50:35;44.97;;;25.70;;
8538;SDS011;4307;53.868;11.680;2024-03-22T10:53:04;50.33;;;26.43;;
8538;SDS011;4307;53.868;11.680;2024-03-22T10:55:37;52.93;;;27.87;;
8538;SDS011;4307;53.868;11.680;2024-03-22T10:58:07;51.00;;;25.87;;
8538;SDS011;4307;53.868;11.680;2024-03-22T11:00:41;45.03;;;24.87;;
8538;SDS011;4307;53.868;11.680;2024-03-22T11:03:08;47.43;;;25.47;;
8538;SDS011;4307;53.868;11.680;2024-03-22T11:05:44;43.70;;;24.20;;
8538;SDS011;4307;53.868;11.680;2024-03-22T11:08:10;46.53;;;24.90;;
8538;SDS011;4307;53.868;11.680;2024-03-22T11:10:38;42.87;;;23.67;;
8538;SDS011;4307;53.868;11.680;2024-03-22T11:13:04;48.60;;;24.70;;
8538;SDS011;4307;53.868;11.680;2024-03-22T11:15:33;48.03;;;25.33;;
8538;SDS011;4307;53.868;11.680;2024-03-22T11:17:59;45.17;;;24.57;;
8538;SDS011;4307;53.868;11.680;2024-03-22T11:20:26;45.47;;;23.60;;
8538;SDS011;4307;53.868;11.680;2024-03-22T11:22:52;47.37;;;24.93;;
8538;SDS011;4307;53.868;11.680;2024-03-22T11:25:19;41.83;;;23.93;;
8538;SDS011;4307;53.868;11.680;2024-03-22T11:27:46;43.63;;;23.53;;
8538;SDS011;4307;53.868;11.680;2024-03-22T11:30:14;42.87;;;23.00;;
8538;SDS011;4307;53.868;11.680;2024-03-22T11:32:40;42.83;;;22.20;;
8538;SDS011;4307;53.868;11.680;2024-03-22T11:35:10;39.40;;;21.80;;
8538;SDS011;4307;53.868;11.680;2024-03-22T11:37:36;38.57;;;22.03;;
8538;SDS011;4307;53.868;11.680;2024-03-22T11:40:04;39.00;;;20.93;;
8538;SDS011;4307;53.868;11.680;2024-03-22T11:42:31;37.43;;;19.67;;
8538;SDS011;4307;53.868;11.680;2024-03-22T11:45:00;35.93;;;19.17;;
8538;SDS011;4307;53.868;11.680;2024-03-22T11:47:27;30.30;;;18.20;;
8538;SDS011;4307;53.868;11.680;2024-03-22T11:49:55;33.33;;;18.27;;
8538;SDS011;4307;53.868;11.680;2024-03-22T11:52:23;24.50;;;14.83;;
8538;SDS011;4307;53.868;11.680;2024-03-22T11:54:51;24.60;;;14.23;;
8538;SDS011;4307;53.868;11.680;2024-03-22T11:57:17;22.70;;;13.97;;
8538;SDS011;4307;53.868;11.680;2024-03-22T11:59:44;23.40;;;14.37;;
8538;SDS011;4307;53.868;11.680;2024-03-22T12:02:11;23.30;;;13.97;;
8538;SDS011;4307;53.868;11.680;2024-03-22T12:04:40;19.50;;;12.63;;
8538;SDS011;4307;53.868;11.680;2024-03-22T12:07:08;21.03;;;12.77;;
8538;SDS011;4307;53.868;11.680;2024-03-22T12:09:36;19.50;;;13.03;;
8538;SDS011;4307;53.868;11.680;2024-03-22T12:12:03;21.67;;;13.20;;
8538;SDS011;4307;53.868;11.680;2024-03-22T12:14:31;17.33;;;11.77;;
8538;SDS011;4307;53.868;11.680;2024-03-22T12:16:56;18.17;;;12.07;;
8538;SDS011;4307;53.868;11.680;2024-03-22T12:19:25;16.27;;;10.90;;
8538;SDS011;4307;53.868;11.680;2024-03-22T12:21:51;16.90;;;11.73;;
8538;SDS011;4307;53.868;11.680;2024-03-22T12:24:17;18.50;;;11.53;;
8538;SDS011;4307;53.868;11.680;2024-03-22T12:26:43;17.80;;;10.33;;
8538;SDS011;4307;53.868;11.680;2024-03-22T12:29:10;19.40;;;10.93;;
8538;SDS011;4307;53.868;11.680;2024-03-22T12:31:37;18.57;;;10.43;;
8538;SDS011;4307;53.868;11.680;2024-03-22T12:34:04;15.07;;;10.30;;
8538;SDS011;4307;53.868;11.680;2024-03-22T12:36:31;15.77;;;10.90;;
8538;SDS011;4307;53.868;11.680;2024-03-22T12:38:58;16.20;;;10.37;;
8538;SDS011;4307;53.868;11.680;2024-03-22T12:41:24;13.67;;;9.40;;
8538;SDS011;4307;53.868;11.680;2024-03-22T12:43:51;14.40;;;9.23;;
8538;SDS011;4307;53.868;11.680;2024-03-22T12:46:17;16.70;;;10.50;;
8538;SDS011;4307;53.868;11.680;2024-03-22T12:48:43;15.27;;;9.87;;
8538;SDS011;4307;53.868;11.680;2024-03-22T12:51:09;16.77;;;12.47;;
8538;SDS011;4307;53.868;11.680;2024-03-22T12:53:37;15.17;;;9.70;;
8538;SDS011;4307;53.868;11.680;2024-03-22T12:56:03;15.97;;;10.53;;
8538;SDS011;4307;53.868;11.680;2024-03-22T12:58:30;17.63;;;10.13;;
8538;SDS011;4307;53.868;11.680;2024-03-22T13:00:56;15.97;;;9.60;;
8538;SDS011;4307;53.868;11.680;2024-03-22T13:03:24;12.73;;;9.37;;
8538;SDS011;4307;53.868;11.680;2024-03-22T13:05:50;14.53;;;9.73;;
8538;SDS011;4307;53.868;11.680;2024-03-22T13:08:17;12.23;;;9.33;;
8538;SDS011;4307;53.868;11.680;2024-03-22T13:10:45;14.10;;;8.87;;
8538;SDS011;4307;53.868;11.680;2024-03-22T13:13:13;13.90;;;9.13;;
8538;SDS011;4307;53.868;11.680;2024-03-22T13:15:41;14.97;;;9.27;;
8538;SDS011;4307;53.868;11.680;2024-03-22T13:18:08;13.60;;;8.90;;
8538;SDS011;4307;53.868;11.680;2024-03-22T13:20:34;14.30;;;9.03;;
8538;SDS011;4307;53.868;11.680;2024-03-22T13:23:02;12.93;;;8.53;;
8538;SDS011;4307;53.868;11.680;2024-03-22T13:25:28;12.83;;;8.80;;
8538;SDS011;4307;53.868;11.680;2024-03-22T13:27:56;12.73;;;8.37;;
8538;SDS011;4307;53.868;11.680;2024-03-22T13:30:22;13.73;;;8.83;;
8538;SDS011;4307;53.868;11.680;2024-03-22T13:32:48;16.33;;;9.63;;
8538;SDS011;4307;53.868;11.680;2024-03-22T13:35:14;16.30;;;8.70;;
8538;SDS011;4307;53.868;11.680;2024-03-22T13:37:41;12.70;;;8.30;;
8538;SDS011;4307;53.868;11.680;2024-03-22T13:40:07;10.77;;;8.07;;
8538;SDS011;4307;53.868;11.680;2024-03-22T13:42:34;13.70;;;8.30;;
8538;SDS011;4307;53.868;11.680;2024-03-22T13:45:02;10.17;;;7.23;;
8538;SDS011;4307;53.868;11.680;2024-03-22T13:47:29;12.60;;;7.67;;
8538;SDS011;4307;53.868;11.680;2024-03-22T13:49:55;14.33;;;6.47;;
8538;SDS011;4307;53.868;11.680;2024-03-22T13:52:22;8.90;;;5.87;;
8538;SDS011;4307;53.868;11.680;2024-03-22T13:54:47;9.37;;;6.57;;
8538;SDS011;4307;53.868;11.680;2024-03-22T13:57:15;10.50;;;7.07;;
8538;SDS011;4307;53.868;11.680;2024-03-22T13:59:40;7.97;;;6.30;;
8538;SDS011;4307;53.868;11.680;2024-03-22T14:02:09;10.17;;;6.80;;
8538;SDS011;4307;53.868;11.680;2024-03-22T14:04:34;11.63;;;7.00;;
8538;SDS011;4307;53.868;11.680;2024-03-22T14:07:01;6.70;;;5.00;;
8538;SDS011;4307;53.868;11.680;2024-03-22T14:09:29;5.57;;;4.67;;
8538;SDS011;4307;53.868;11.680;2024-03-22T14:11:56;5.37;;;4.07;;
8538;SDS011;4307;53.868;11.680;2024-03-22T14:14:22;5.03;;;4.13;;
8538;SDS011;4307;53.868;11.680;2024-03-22T14:16:49;5.07;;;4.13;;
8538;SDS011;4307;53.868;11.680;2024-03-22T14:19:16;7.17;;;4.23;;
8538;SDS011;4307;53.868;11.680;2024-03-22T14:21:44;4.93;;;4.07;;
8538;SDS011;4307;53.868;11.680;2024-03-22T14:24:10;5.13;;;3.90;;
8538;SDS011;4307;53.868;11.680;2024-03-22T14:26:37;4.37;;;3.57;;
8538;SDS011;4307;53.868;11.680;2024-03-22T14:29:07;5.03;;;3.87;;
8538;SDS011;4307;53.868;11.680;2024-03-22T14:31:33;5.33;;;3.83;;
8538;SDS011;4307;53.868;11.680;2024-03-22T14:33:59;4.33;;;3.70;;
8538;SDS011;4307;53.868;11.680;2024-03-22T14:36:27;4.20;;;3.80;;
8538;SDS011;4307;53.868;11.680;2024-03-22T14:38:53;4.20;;;3.67;;